PMI weather

Palma De Mallorca Airport
Palma De Mallorca, Baleares, Spain

Public forecast

Using degrees Celsius for public forecast. Weather courtesy of forecast.io.

Current aviation weather report (METAR) for Palma De Mallorca Airport

Retrieved 2020/08/05 13:30 UTC (19 minutes ago):

LEPA 051330Z 23013KT 200V260 9999 FEW030 29/20 Q1014 NOSIG

Aviation forecast (TAF) for Palma De Mallorca Airport

Retrieved 2020/08/05 12:27 UTC (1 hour ago):

TAF LEPA 051100Z 0512/0612 22012KT 9999 SCT050 TX30/0512Z TN18/0606Z PROB30 TEMPO 0512/0515 FEW040TCU BECMG 0519/0521 VRB03KT PROB40 TEMPO 0601/0607 4000 BR BKN008 PROB30 TEMPO 0601/0606 0500 FG VV002 BECMG 0608/0610 22012KT